createdAt,value
2023-06-30T00:02:36.517Z,57.67
2023-06-30T00:05:39.254Z,57.60
2023-06-30T00:08:41.716Z,57.78
2023-06-30T00:11:44.336Z,57.78
2023-06-30T00:14:46.637Z,57.91
2023-06-30T00:17:49.798Z,57.93
2023-06-30T00:20:52.255Z,58.02
2023-06-30T00:23:54.921Z,58.20
2023-06-30T00:26:57.380Z,58.44
2023-06-30T00:29:59.980Z,58.57
2023-06-30T00:33:02.567Z,58.85
2023-06-30T00:36:05.405Z,59.07
2023-06-30T00:39:07.780Z,59.24
2023-06-30T00:42:10.893Z,59.22
2023-06-30T00:45:13.368Z,59.50
2023-06-30T00:48:18.611Z,59.50
2023-06-30T00:51:21.313Z,59.78
2023-06-30T00:54:25.605Z,59.80
2023-06-30T00:57:27.975Z,60.13
2023-06-30T01:00:30.650Z,60.42
2023-06-30T01:04:13.420Z,60.56
2023-06-30T01:07:38.386Z,60.97
2023-06-30T01:10:43.425Z,60.94
2023-06-30T01:13:47.949Z,61.15
2023-06-30T01:16:51.578Z,61.36
2023-06-30T01:19:55.841Z,61.47
2023-06-30T01:23:08.665Z,61.69
2023-06-30T01:26:11.855Z,61.70
2023-06-30T01:29:14.831Z,61.97
2023-06-30T01:32:18.237Z,62.06
2023-06-30T01:35:20.691Z,62.17
2023-06-30T01:38:23.328Z,62.05
2023-06-30T01:41:25.769Z,62.39
2023-06-30T01:44:28.594Z,62.42
2023-06-30T01:47:31.016Z,62.49
2023-06-30T01:50:34.143Z,62.66
2023-06-30T01:53:36.545Z,62.89
2023-06-30T01:56:48.327Z,62.88
2023-06-30T01:59:51.074Z,63.12
2023-06-30T02:02:53.806Z,63.12
2023-06-30T02:05:56.618Z,63.16
2023-06-30T02:08:58.983Z,63.32
2023-06-30T02:12:01.586Z,63.46
2023-06-30T02:15:04.890Z,63.54
2023-06-30T02:18:07.716Z,63.57
2023-06-30T02:21:11.302Z,63.71
2023-06-30T02:24:13.688Z,63.80
2023-06-30T02:27:18.162Z,63.83
2023-06-30T02:30:20.982Z,63.86
2023-06-30T02:33:24.507Z,63.91
2023-06-30T02:36:26.991Z,64.12
2023-06-30T02:39:30.631Z,64.04
2023-06-30T02:42:33.225Z,64.15
2023-06-30T02:45:35.912Z,64.17
2023-06-30T02:48:38.305Z,64.15
2023-06-30T02:51:41.224Z,64.23
2023-06-30T02:54:43.606Z,64.32
2023-06-30T02:57:46.249Z,64.35
2023-06-30T03:00:50.638Z,64.52
2023-06-30T03:03:54.103Z,64.76
2023-06-30T03:06:57.729Z,65.14
2023-06-30T03:10:02.254Z,65.23
2023-06-30T03:13:04.715Z,65.18
2023-06-30T03:16:08.408Z,65.29
2023-06-30T03:19:11.061Z,65.36
2023-06-30T03:22:13.864Z,65.40
2023-06-30T03:25:17.242Z,65.47
2023-06-30T03:28:19.934Z,65.49
2023-06-30T03:31:22.452Z,65.55
2023-06-30T03:34:25.752Z,65.57
2023-06-30T03:37:28.102Z,65.63
2023-06-30T03:40:30.971Z,65.61
2023-06-30T03:43:34.256Z,65.79
2023-06-30T03:46:38.646Z,66.06
2023-06-30T03:49:40.919Z,66.18
2023-06-30T03:52:43.537Z,66.22
2023-06-30T03:55:46.130Z,66.01
2023-06-30T03:58:49.044Z,65.67
2023-06-30T04:01:51.660Z,66.21
2023-06-30T04:04:54.313Z,66.28
2023-06-30T04:07:56.951Z,66.03
2023-06-30T04:10:59.657Z,65.91
2023-06-30T04:14:02.228Z,66.29
2023-06-30T04:17:05.376Z,66.33
2023-06-30T04:20:10.582Z,66.07
2023-06-30T04:23:13.669Z,65.84
2023-06-30T04:26:19.052Z,65.67
2023-06-30T04:29:21.662Z,65.94
2023-06-30T04:32:24.018Z,65.79
2023-06-30T04:35:27.012Z,65.67
2023-06-30T04:38:29.380Z,65.54
2023-06-30T04:41:32.042Z,65.08
2023-06-30T04:44:34.416Z,64.98
2023-06-30T04:47:37.334Z,64.85
2023-06-30T04:50:39.901Z,64.66
2023-06-30T04:53:43.273Z,64.78
2023-06-30T04:56:45.728Z,64.61
2023-06-30T04:59:48.317Z,64.27
2023-06-30T05:02:50.975Z,64.15
2023-06-30T05:05:53.695Z,63.92
2023-06-30T05:08:56.111Z,63.99
2023-06-30T05:11:58.745Z,64.10
2023-06-30T05:15:01.077Z,63.82
2023-06-30T05:18:03.876Z,63.53
2023-06-30T05:21:09.933Z,63.29
2023-06-30T05:24:12.725Z,62.97
2023-06-30T05:27:15.413Z,62.94
2023-06-30T05:30:19.144Z,62.42
2023-06-30T05:33:21.456Z,61.58
2023-06-30T05:36:24.211Z,60.85
2023-06-30T05:39:26.601Z,60.42
2023-06-30T05:42:29.280Z,59.76
2023-06-30T05:45:31.672Z,59.25
2023-06-30T05:48:34.299Z,58.83
2023-06-30T05:51:37.371Z,58.29
2023-06-30T05:54:39.976Z,58.11
2023-06-30T05:57:42.290Z,57.58
2023-06-30T06:00:44.991Z,57.17
2023-06-30T06:03:48.439Z,57.02
2023-06-30T06:06:50.969Z,56.00
2023-06-30T06:09:53.656Z,56.04
2023-06-30T06:12:56.081Z,55.44
2023-06-30T06:15:58.829Z,54.96
2023-06-30T06:19:01.215Z,54.06
2023-06-30T06:22:03.918Z,53.02
2023-06-30T06:25:06.987Z,52.81
2023-06-30T06:28:09.635Z,52.76
2023-06-30T06:31:12.279Z,52.83
2023-06-30T06:34:15.254Z,52.32
2023-06-30T06:37:17.752Z,51.68
2023-06-30T06:40:20.463Z,51.05
2023-06-30T06:43:27.405Z,51.06
2023-06-30T06:46:30.178Z,50.38
2023-06-30T06:49:32.581Z,50.46
2023-06-30T06:52:35.972Z,50.36
2023-06-30T06:55:38.379Z,50.04
2023-06-30T06:58:41.033Z,49.88
2023-06-30T07:01:43.456Z,49.78
2023-06-30T07:04:46.101Z,49.31
2023-06-30T07:07:48.550Z,49.16
2023-06-30T07:10:51.773Z,48.79
2023-06-30T07:13:54.287Z,48.48
2023-06-30T07:16:56.952Z,47.94
2023-06-30T07:19:59.689Z,47.74
2023-06-30T07:23:02.418Z,47.20
2023-06-30T07:26:04.744Z,47.21
2023-06-30T07:29:07.368Z,46.50
2023-06-30T07:32:09.905Z,46.33
2023-06-30T07:35:12.606Z,46.42
2023-06-30T07:38:15.262Z,45.48
2023-06-30T07:41:17.921Z,45.00
2023-06-30T07:44:21.771Z,44.05
2023-06-30T07:47:24.448Z,43.43
2023-06-30T07:50:26.956Z,42.88
2023-06-30T07:53:29.552Z,42.41
2023-06-30T07:56:31.888Z,41.66
2023-06-30T07:59:34.864Z,40.56
2023-06-30T08:02:38.157Z,40.06
2023-06-30T08:05:41.120Z,39.61
2023-06-30T08:08:43.922Z,39.43
2023-06-30T08:11:46.563Z,39.31
2023-06-30T08:14:49.653Z,39.38
2023-06-30T08:17:56.873Z,38.60
2023-06-30T08:21:03.104Z,37.67
2023-06-30T08:24:06.041Z,37.68
2023-06-30T08:27:08.854Z,36.63
2023-06-30T08:30:11.787Z,36.64
2023-06-30T08:33:23.085Z,36.19
2023-06-30T08:36:36.863Z,35.29
2023-06-30T08:39:40.478Z,35.16
2023-06-30T08:42:49.695Z,34.53
2023-06-30T08:45:54.378Z,34.01
2023-06-30T08:48:57.234Z,34.00
2023-06-30T08:52:00.530Z,33.71
2023-06-30T08:55:04.182Z,33.68
2023-06-30T08:58:13.497Z,33.31
2023-06-30T09:01:21.422Z,32.90
2023-06-30T09:04:24.320Z,32.97
2023-06-30T09:07:29.053Z,32.37
2023-06-30T09:10:35.429Z,31.18
2023-06-30T09:13:43.109Z,31.11
2023-06-30T09:16:49.564Z,31.13
2023-06-30T09:19:53.095Z,31.00
2023-06-30T09:22:57.305Z,30.94
2023-06-30T09:26:00.315Z,30.03
2023-06-30T09:29:03.737Z,30.51
2023-06-30T09:32:06.905Z,30.59
2023-06-30T09:35:10.068Z,30.66
2023-06-30T09:38:17.251Z,30.16
2023-06-30T09:41:22.089Z,30.20
2023-06-30T09:44:25.464Z,29.78
2023-06-30T09:47:27.895Z,29.43
2023-06-30T09:50:33.464Z,29.44
2023-06-30T09:53:37.518Z,29.02
2023-06-30T09:56:41.615Z,28.78
2023-06-30T09:59:46.677Z,28.56
2023-06-30T10:03:04.238Z,28.28
2023-06-30T10:06:07.026Z,27.82
2023-06-30T10:09:09.767Z,27.17
2023-06-30T10:12:14.451Z,27.46
2023-06-30T10:15:16.976Z,27.55
2023-06-30T10:18:20.413Z,27.26
2023-06-30T10:21:22.822Z,26.64
2023-06-30T10:24:28.449Z,26.71
2023-06-30T10:27:31.632Z,26.54
2023-06-30T10:30:35.562Z,27.15
2023-06-30T10:33:39.213Z,26.69
2023-06-30T10:36:43.360Z,27.20
2023-06-30T10:39:47.535Z,27.23
2023-06-30T10:42:54.272Z,27.02
2023-06-30T10:46:12.843Z,26.18
2023-06-30T10:49:22.042Z,26.54
2023-06-30T10:52:32.372Z,26.73
2023-06-30T10:55:35.122Z,26.90
2023-06-30T10:58:41.992Z,27.37
2023-06-30T11:02:15.000Z,26.92
2023-06-30T11:05:25.523Z,28.16
2023-06-30T11:08:28.952Z,27.76
2023-06-30T11:11:52.310Z,27.95
2023-06-30T11:14:59.870Z,27.42
2023-06-30T11:18:04.193Z,27.52
2023-06-30T11:21:08.168Z,26.70
2023-06-30T11:24:16.166Z,26.64
2023-06-30T11:27:20.185Z,26.72
2023-06-30T11:30:23.811Z,26.75
2023-06-30T11:33:26.480Z,26.73
2023-06-30T11:36:32.206Z,26.61
2023-06-30T11:39:37.907Z,26.91
2023-06-30T11:42:41.136Z,26.86
2023-06-30T11:45:45.312Z,26.79
2023-06-30T11:48:49.234Z,26.78
2023-06-30T11:51:51.977Z,27.73
2023-06-30T11:54:54.343Z,27.59
2023-06-30T11:57:57.023Z,27.94
2023-06-30T12:00:59.505Z,27.68
2023-06-30T12:04:09.879Z,27.99
2023-06-30T12:07:15.535Z,27.70
2023-06-30T12:10:18.576Z,27.43
2023-06-30T12:13:21.361Z,27.93
2023-06-30T12:16:27.764Z,27.77
2023-06-30T12:19:30.232Z,27.66
2023-06-30T12:22:36.475Z,27.93
2023-06-30T12:25:39.273Z,28.13
2023-06-30T12:28:44.635Z,28.51
2023-06-30T12:31:48.529Z,29.09
2023-06-30T12:35:06.093Z,29.36
2023-06-30T12:38:10.446Z,29.55
2023-06-30T12:41:13.110Z,29.40
2023-06-30T12:44:15.797Z,29.96
2023-06-30T12:47:18.340Z,30.38
2023-06-30T12:50:23.374Z,30.28
2023-06-30T12:53:26.036Z,29.65
2023-06-30T12:56:28.359Z,29.69
2023-06-30T12:59:31.426Z,29.16
2023-06-30T13:02:34.664Z,29.26
2023-06-30T13:05:38.223Z,29.41
2023-06-30T13:08:40.617Z,29.53
2023-06-30T13:11:43.931Z,29.54
2023-06-30T13:14:46.247Z,29.75
2023-06-30T13:17:48.931Z,29.86
2023-06-30T13:20:51.354Z,30.42
2023-06-30T13:23:54.109Z,31.01
2023-06-30T13:26:56.773Z,30.64
2023-06-30T13:30:00.208Z,30.58
2023-06-30T13:33:02.633Z,30.28
2023-06-30T13:36:05.839Z,30.23
2023-06-30T13:39:08.188Z,29.98
2023-06-30T13:42:10.969Z,29.90
2023-06-30T13:45:13.454Z,30.28
2023-06-30T13:48:16.266Z,29.99
2023-06-30T13:51:18.763Z,30.37
2023-06-30T13:54:24.061Z,31.08
2023-06-30T13:57:26.579Z,31.33
2023-06-30T14:00:30.614Z,31.41
2023-06-30T14:03:34.445Z,31.49
2023-06-30T14:06:37.205Z,31.91
2023-06-30T14:09:42.602Z,31.67
2023-06-30T14:12:45.185Z,31.63
2023-06-30T14:15:48.357Z,31.65
2023-06-30T14:18:50.869Z,31.72
2023-06-30T14:21:53.400Z,31.50
2023-06-30T14:24:55.752Z,31.28
2023-06-30T14:27:58.484Z,31.22
2023-06-30T14:31:00.988Z,31.23
2023-06-30T14:34:03.908Z,31.21
2023-06-30T14:37:06.330Z,31.01
2023-06-30T14:40:09.562Z,30.47
2023-06-30T14:43:11.965Z,30.56
2023-06-30T14:46:14.726Z,31.13
2023-06-30T14:49:17.078Z,31.09
2023-06-30T14:52:19.795Z,31.11
2023-06-30T14:55:22.280Z,31.02
2023-06-30T14:58:24.960Z,30.99
2023-06-30T15:01:27.327Z,31.29
2023-06-30T15:04:29.986Z,30.95
2023-06-30T15:07:32.835Z,30.77
2023-06-30T15:10:35.590Z,30.63
2023-06-30T15:13:39.219Z,30.97
2023-06-30T15:16:41.988Z,31.00
2023-06-30T15:19:46.520Z,31.04
2023-06-30T15:22:50.422Z,31.22
2023-06-30T15:25:52.765Z,31.39
2023-06-30T15:28:55.478Z,31.86
2023-06-30T15:31:57.934Z,32.00
2023-06-30T15:35:00.683Z,31.86
2023-06-30T15:38:03.108Z,31.87
2023-06-30T15:41:21.565Z,32.13
2023-06-30T15:44:26.208Z,31.99
2023-06-30T15:47:29.152Z,31.85
2023-06-30T15:50:32.851Z,31.94
2023-06-30T15:53:35.785Z,32.03
2023-06-30T15:56:38.186Z,32.46
2023-06-30T15:59:40.968Z,32.10
2023-06-30T16:02:43.484Z,32.21
2023-06-30T16:05:46.692Z,32.17
2023-06-30T16:08:49.221Z,32.49
2023-06-30T16:11:51.925Z,32.77
2023-06-30T16:14:54.277Z,32.49
2023-06-30T16:17:57.003Z,32.54
2023-06-30T16:21:01.868Z,32.78
2023-06-30T16:24:04.819Z,33.07
2023-06-30T16:27:08.481Z,33.39
2023-06-30T16:30:30.808Z,33.55
2023-06-30T16:33:35.123Z,33.62
2023-06-30T16:36:40.010Z,33.69
2023-06-30T16:39:43.461Z,33.86
2023-06-30T16:42:46.510Z,33.78
2023-06-30T16:45:49.555Z,33.72
2023-06-30T16:48:52.393Z,33.83
2023-06-30T16:51:54.709Z,33.94
2023-06-30T16:54:57.401Z,34.00
2023-06-30T16:58:02.013Z,34.05
2023-06-30T17:01:04.689Z,34.07
2023-06-30T17:04:07.229Z,33.89
2023-06-30T17:07:15.132Z,33.70
2023-06-30T17:10:17.521Z,33.44
2023-06-30T17:13:20.173Z,33.38
2023-06-30T17:16:24.901Z,33.42
2023-06-30T17:19:28.614Z,33.55
2023-06-30T17:22:31.198Z,33.74
2023-06-30T17:25:33.914Z,33.93
2023-06-30T17:28:36.266Z,34.19
2023-06-30T17:31:39.143Z,34.38
2023-06-30T17:34:41.578Z,34.13
2023-06-30T17:37:44.250Z,34.02
2023-06-30T17:40:46.682Z,34.33
2023-06-30T17:43:49.565Z,33.97
2023-06-30T17:46:52.504Z,33.78
2023-06-30T17:49:55.450Z,33.89
2023-06-30T17:52:57.989Z,33.89
2023-06-30T17:56:00.732Z,33.96
2023-06-30T17:59:03.190Z,33.87
2023-06-30T18:02:06.738Z,34.01
2023-06-30T18:05:09.852Z,34.30
2023-06-30T18:08:13.133Z,34.52
2023-06-30T18:11:16.202Z,34.92
2023-06-30T18:14:18.585Z,35.13
2023-06-30T18:17:22.707Z,35.11
2023-06-30T18:20:25.111Z,34.96
2023-06-30T18:23:27.818Z,35.20
2023-06-30T18:26:30.262Z,35.08
2023-06-30T18:29:33.007Z,35.05
2023-06-30T18:32:35.706Z,35.02
2023-06-30T18:35:38.453Z,35.30
2023-06-30T18:38:40.866Z,35.59
2023-06-30T18:41:45.285Z,35.79
2023-06-30T18:44:47.797Z,35.84
2023-06-30T18:47:51.093Z,35.93
2023-06-30T18:50:53.487Z,36.11
2023-06-30T18:53:56.959Z,36.57
2023-06-30T18:56:59.331Z,36.55
2023-06-30T19:00:03.742Z,36.76
2023-06-30T19:03:06.425Z,37.07
2023-06-30T19:06:09.374Z,37.14
2023-06-30T19:09:11.806Z,37.41
2023-06-30T19:12:14.523Z,38.03
2023-06-30T19:15:16.839Z,37.94
2023-06-30T19:18:20.930Z,37.75
2023-06-30T19:21:26.954Z,37.81
2023-06-30T19:24:29.819Z,37.90
2023-06-30T19:27:32.138Z,38.09
2023-06-30T19:30:35.180Z,38.17
2023-06-30T19:33:39.261Z,38.35
2023-06-30T19:36:41.897Z,38.37
2023-06-30T19:39:45.457Z,38.68
2023-06-30T19:42:48.049Z,38.78
2023-06-30T19:45:51.285Z,38.75
2023-06-30T19:48:54.245Z,38.98
2023-06-30T19:51:56.694Z,38.97
2023-06-30T19:54:59.302Z,39.08
2023-06-30T19:58:03.610Z,39.42
2023-06-30T20:01:06.271Z,39.60
2023-06-30T20:04:08.991Z,39.80
2023-06-30T20:07:12.418Z,39.87
2023-06-30T20:10:15.087Z,40.04
2023-06-30T20:13:17.463Z,40.44
2023-06-30T20:16:20.263Z,40.51
2023-06-30T20:19:22.734Z,40.68
2023-06-30T20:22:25.666Z,40.74
2023-06-30T20:25:28.607Z,40.80
2023-06-30T20:28:31.344Z,40.98
2023-06-30T20:31:33.866Z,41.14
2023-06-30T20:34:36.662Z,41.38
2023-06-30T20:37:39.110Z,41.35
2023-06-30T20:40:41.765Z,41.43
2023-06-30T20:43:44.126Z,41.87
2023-06-30T20:46:46.823Z,41.91
2023-06-30T20:49:49.241Z,42.33
2023-06-30T20:52:51.954Z,42.49
2023-06-30T20:55:56.195Z,42.79
2023-06-30T20:58:59.175Z,42.44
2023-06-30T21:02:02.604Z,42.63
2023-06-30T21:05:05.898Z,42.89
2023-06-30T21:08:08.253Z,43.08
2023-06-30T21:11:11.300Z,43.27
2023-06-30T21:14:15.170Z,43.38
2023-06-30T21:17:18.361Z,43.58
2023-06-30T21:20:20.973Z,43.81
2023-06-30T21:23:23.633Z,44.14
2023-06-30T21:26:26.042Z,44.00
2023-06-30T21:29:29.008Z,44.22
2023-06-30T21:32:31.741Z,44.50
2023-06-30T21:35:34.467Z,44.75
2023-06-30T21:38:38.192Z,44.95
2023-06-30T21:41:40.809Z,45.02
2023-06-30T21:44:43.654Z,45.18
2023-06-30T21:47:46.464Z,45.75
2023-06-30T21:50:49.062Z,46.37
2023-06-30T21:53:52.487Z,46.05
2023-06-30T21:56:54.846Z,46.46
2023-06-30T21:59:57.544Z,46.74
2023-06-30T22:03:00.309Z,47.28
2023-06-30T22:06:03.727Z,47.61
2023-06-30T22:09:15.236Z,48.09
2023-06-30T22:12:18.850Z,48.16
2023-06-30T22:15:23.114Z,48.43
2023-06-30T22:18:25.764Z,48.53
2023-06-30T22:21:28.102Z,48.64
2023-06-30T22:24:30.735Z,49.03
2023-06-30T22:27:33.192Z,49.21
2023-06-30T22:30:35.891Z,49.53
2023-06-30T22:33:38.977Z,49.84
2023-06-30T22:36:41.500Z,49.91
2023-06-30T22:39:46.182Z,50.26
2023-06-30T22:42:49.307Z,50.15
2023-06-30T22:45:51.972Z,50.34
2023-06-30T22:48:54.703Z,50.73
2023-06-30T22:51:57.087Z,50.95
2023-06-30T22:54:59.834Z,51.54
2023-06-30T22:58:02.900Z,52.11
2023-06-30T23:01:07.191Z,52.62
2023-06-30T23:04:09.716Z,53.05
2023-06-30T23:07:12.628Z,53.61
2023-06-30T23:10:16.387Z,53.93
2023-06-30T23:13:20.478Z,53.99
2023-06-30T23:16:23.590Z,54.28
2023-06-30T23:19:27.586Z,54.55
2023-06-30T23:22:30.823Z,55.02
2023-06-30T23:25:35.042Z,55.22
2023-06-30T23:28:44.482Z,55.61
2023-06-30T23:31:48.469Z,55.70
2023-06-30T23:34:51.366Z,55.63
2023-06-30T23:37:54.500Z,55.72
2023-06-30T23:40:56.943Z,55.84
2023-06-30T23:43:59.522Z,55.80
2023-06-30T23:47:04.454Z,55.77
2023-06-30T23:50:07.789Z,56.04
2023-06-30T23:53:10.131Z,56.34
2023-06-30T23:56:12.769Z,56.44
2023-06-30T23:59:15.114Z,56.49
